createdAt,value
2017-07-07T00:00:18.265Z,20.82
2017-07-07T00:00:58.798Z,20.76
2017-07-07T00:01:39.333Z,20.73
2017-07-07T00:02:19.884Z,20.76
2017-07-07T00:03:00.433Z,20.69
2017-07-07T00:03:40.979Z,20.66
2017-07-07T00:04:21.523Z,20.62
2017-07-07T00:05:02.065Z,20.58
2017-07-07T00:05:42.611Z,20.61
2017-07-07T00:06:23.154Z,20.62
2017-07-07T00:07:03.697Z,20.67
2017-07-07T00:07:44.239Z,20.52
2017-07-07T00:08:24.778Z,20.58
2017-07-07T00:09:05.320Z,20.54
2017-07-07T00:09:45.862Z,20.62
2017-07-07T00:10:26.408Z,20.47
2017-07-07T00:11:06.946Z,20.58
2017-07-07T00:11:47.486Z,20.57
2017-07-07T00:12:28.031Z,20.58
2017-07-07T00:13:08.573Z,20.57
2017-07-07T00:13:49.121Z,20.58
2017-07-07T00:14:29.664Z,20.5
2017-07-07T00:15:10.206Z,20.55
2017-07-07T00:15:50.747Z,20.55
2017-07-07T00:16:31.285Z,20.59
2017-07-07T00:17:11.825Z,20.54
2017-07-07T00:17:52.372Z,20.52
2017-07-07T00:18:32.916Z,20.47
2017-07-07T00:19:13.440Z,20.43
2017-07-07T00:19:53.981Z,20.39
2017-07-07T00:20:34.529Z,20.39
2017-07-07T00:21:15.069Z,20.31
2017-07-07T00:21:55.610Z,20.32
2017-07-07T00:22:36.150Z,20.29
2017-07-07T00:23:16.688Z,20.35
2017-07-07T00:23:57.271Z,20.28
2017-07-07T00:24:37.813Z,20.21
2017-07-07T00:25:18.353Z,20.2
2017-07-07T00:25:58.893Z,20.18
2017-07-07T00:26:39.443Z,20.17
2017-07-07T00:27:19.976Z,20.11
2017-07-07T00:28:00.515Z,20.17
2017-07-07T00:28:41.062Z,20.2
2017-07-07T00:29:21.605Z,20.11
2017-07-07T00:30:02.150Z,20.11
2017-07-07T00:30:42.692Z,20.13
2017-07-07T00:31:23.235Z,20.1
2017-07-07T00:32:03.778Z,20.06
2017-07-07T00:32:44.311Z,20.11
2017-07-07T00:33:24.855Z,20.06
2017-07-07T00:34:05.396Z,20.1
2017-07-07T00:34:45.942Z,20.01
2017-07-07T00:35:26.477Z,19.99
2017-07-07T00:36:07.019Z,20.1
2017-07-07T00:36:47.560Z,20.1
2017-07-07T00:37:28.108Z,20.05
2017-07-07T00:38:08.644Z,19.99
2017-07-07T00:38:49.185Z,20.01
2017-07-07T00:39:29.721Z,19.92
2017-07-07T00:40:10.261Z,19.87
2017-07-07T00:40:50.805Z,19.87
2017-07-07T00:41:31.349Z,19.88
2017-07-07T00:42:11.891Z,19.92
2017-07-07T00:42:52.434Z,19.88
2017-07-07T00:43:32.991Z,19.84
2017-07-07T00:44:13.532Z,19.81
2017-07-07T00:44:54.077Z,19.88
2017-07-07T00:45:34.622Z,19.8
2017-07-07T00:46:15.162Z,19.78
2017-07-07T00:46:55.708Z,19.76
2017-07-07T00:47:36.254Z,19.76
2017-07-07T00:48:16.803Z,19.84
2017-07-07T00:48:57.353Z,19.78
2017-07-07T00:49:37.897Z,19.74
2017-07-07T00:50:18.422Z,19.77
2017-07-07T00:50:58.961Z,19.78
2017-07-07T00:51:39.505Z,19.77
2017-07-07T00:52:20.060Z,19.68
2017-07-07T00:53:00.602Z,19.73
2017-07-07T00:53:41.152Z,19.66
2017-07-07T00:54:21.691Z,19.71
2017-07-07T00:55:02.235Z,19.65
2017-07-07T00:55:42.788Z,19.56
2017-07-07T00:56:23.328Z,19.62
2017-07-07T00:57:03.871Z,19.63
2017-07-07T00:57:44.409Z,19.51
2017-07-07T00:58:24.954Z,19.58
2017-07-07T00:59:05.494Z,19.58
2017-07-07T00:59:46.028Z,19.61
2017-07-07T01:00:26.571Z,19.58
2017-07-07T01:01:07.117Z,19.59
2017-07-07T01:01:47.663Z,19.58
2017-07-07T01:02:28.201Z,19.61
2017-07-07T01:03:08.749Z,19.65
2017-07-07T01:03:49.286Z,19.62
2017-07-07T01:04:29.828Z,19.66
2017-07-07T01:05:10.372Z,19.66
2017-07-07T01:05:50.916Z,19.71
2017-07-07T01:06:31.458Z,19.66
2017-07-07T01:07:12.000Z,19.62
2017-07-07T01:07:52.538Z,19.56
2017-07-07T01:08:33.079Z,19.55
2017-07-07T01:09:13.625Z,19.58
2017-07-07T01:09:54.172Z,19.51
2017-07-07T01:10:34.714Z,19.56
2017-07-07T01:11:15.332Z,19.54
2017-07-07T01:11:55.880Z,19.4
2017-07-07T01:12:36.425Z,19.37
2017-07-07T01:13:16.974Z,19.37
2017-07-07T01:13:57.514Z,19.33
2017-07-07T01:14:38.058Z,19.4
2017-07-07T01:15:18.597Z,19.32
2017-07-07T01:15:59.137Z,19.28
2017-07-07T01:16:39.680Z,19.28
2017-07-07T01:17:20.230Z,19.31
2017-07-07T01:18:00.762Z,19.31
2017-07-07T01:18:41.311Z,19.25
2017-07-07T01:19:21.853Z,19.25
2017-07-07T01:20:02.398Z,19.29
2017-07-07T01:20:42.943Z,19.28
2017-07-07T01:21:23.490Z,19.19
2017-07-07T01:22:04.032Z,19.23
2017-07-07T01:22:44.567Z,19.28
2017-07-07T01:23:25.109Z,19.31
2017-07-07T01:24:05.637Z,19.21
2017-07-07T01:24:46.189Z,19.22
2017-07-07T01:25:26.724Z,19.18
2017-07-07T01:26:07.269Z,19.19
2017-07-07T01:26:47.818Z,19.18
2017-07-07T01:27:28.362Z,19.16
2017-07-07T01:28:08.897Z,19.1
2017-07-07T01:28:49.447Z,19.13
2017-07-07T01:29:29.977Z,19.14
2017-07-07T01:30:10.531Z,19.19
2017-07-07T01:30:51.075Z,19.14
2017-07-07T01:31:31.615Z,19.18
2017-07-07T01:32:12.150Z,19.16
2017-07-07T01:32:52.696Z,19.18
2017-07-07T01:33:33.237Z,19.14
2017-07-07T01:34:13.782Z,19.16
2017-07-07T01:34:54.331Z,19.11
2017-07-07T01:35:34.876Z,19.23
2017-07-07T01:36:15.422Z,19.14
2017-07-07T01:36:55.965Z,19.21
2017-07-07T01:37:36.501Z,19.16
2017-07-07T01:38:17.042Z,19.11
2017-07-07T01:38:57.589Z,19.18
2017-07-07T01:39:38.130Z,19.16
2017-07-07T01:40:18.669Z,19.16
2017-07-07T01:40:59.206Z,19.04
2017-07-07T01:41:39.759Z,19.07
2017-07-07T01:42:20.290Z,19.07
2017-07-07T01:43:00.834Z,19
2017-07-07T01:43:41.372Z,19.02
2017-07-07T01:44:21.918Z,19.04
2017-07-07T01:45:02.464Z,19.07
2017-07-07T01:45:43.010Z,19.04
2017-07-07T01:46:23.554Z,18.91
2017-07-07T01:47:04.098Z,18.92
2017-07-07T01:47:44.647Z,18.91
2017-07-07T01:48:25.194Z,19.02
2017-07-07T01:49:05.731Z,19
2017-07-07T01:49:46.269Z,18.9
2017-07-07T01:50:26.808Z,18.92
2017-07-07T01:51:07.355Z,18.85
2017-07-07T01:51:47.938Z,18.87
2017-07-07T01:52:28.445Z,18.82
2017-07-07T01:53:08.998Z,18.78
2017-07-07T01:53:49.538Z,18.81
2017-07-07T01:54:30.080Z,18.81
2017-07-07T01:55:10.627Z,18.78
2017-07-07T01:55:51.172Z,18.8
2017-07-07T01:56:31.715Z,18.75
2017-07-07T01:57:12.259Z,18.76
2017-07-07T01:57:52.797Z,18.75
2017-07-07T01:58:33.325Z,18.75
2017-07-07T01:59:13.864Z,18.8
2017-07-07T01:59:54.409Z,18.7
2017-07-07T02:00:34.955Z,18.76
2017-07-07T02:01:15.500Z,18.67
2017-07-07T02:01:56.040Z,18.72
2017-07-07T02:02:36.586Z,18.63
2017-07-07T02:03:17.134Z,18.65
2017-07-07T02:03:57.679Z,18.72
2017-07-07T02:04:38.222Z,18.65
2017-07-07T02:05:18.764Z,18.7
2017-07-07T02:05:59.304Z,18.67
2017-07-07T02:06:39.833Z,18.65
2017-07-07T02:07:20.383Z,18.62
2017-07-07T02:08:00.921Z,18.72
2017-07-07T02:08:41.468Z,18.63
2017-07-07T02:09:22.014Z,18.63
2017-07-07T02:10:02.555Z,18.66
2017-07-07T02:10:43.098Z,18.63
2017-07-07T02:11:23.644Z,18.63
2017-07-07T02:12:04.185Z,18.62
2017-07-07T02:12:44.713Z,18.66
2017-07-07T02:13:25.248Z,18.65
2017-07-07T02:14:05.792Z,18.69
2017-07-07T02:14:46.347Z,18.63
2017-07-07T02:15:26.886Z,18.66
2017-07-07T02:16:07.429Z,18.6
2017-07-07T02:16:47.973Z,18.57
2017-07-07T02:17:28.522Z,18.6
2017-07-07T02:18:09.066Z,18.6
2017-07-07T02:18:49.607Z,18.6
2017-07-07T02:19:30.153Z,18.52
2017-07-07T02:20:10.697Z,18.5
2017-07-07T02:20:51.238Z,18.55
2017-07-07T02:21:31.782Z,18.57
2017-07-07T02:22:12.356Z,18.54
2017-07-07T02:22:52.901Z,18.5
2017-07-07T02:23:33.433Z,18.57
2017-07-07T02:24:13.971Z,18.51
2017-07-07T02:24:54.517Z,18.6
2017-07-07T02:25:35.067Z,18.54
2017-07-07T02:26:15.604Z,18.62
2017-07-07T02:26:56.138Z,18.54
2017-07-07T02:27:36.683Z,18.6
2017-07-07T02:28:17.210Z,18.52
2017-07-07T02:28:57.733Z,18.48
2017-07-07T02:29:38.280Z,18.52
2017-07-07T02:30:18.825Z,18.57
2017-07-07T02:30:59.359Z,18.5
2017-07-07T02:31:39.931Z,18.5
2017-07-07T02:32:20.477Z,18.54
2017-07-07T02:33:01.018Z,18.5
2017-07-07T02:33:41.562Z,18.5
2017-07-07T02:34:22.105Z,18.55
2017-07-07T02:35:02.650Z,18.5
2017-07-07T02:35:43.195Z,18.6
2017-07-07T02:36:23.737Z,18.6
2017-07-07T02:37:04.279Z,18.62
2017-07-07T02:37:44.826Z,18.62
2017-07-07T02:38:25.372Z,18.62
2017-07-07T02:39:05.918Z,18.62
2017-07-07T02:39:46.458Z,18.6
2017-07-07T02:40:26.995Z,18.6
2017-07-07T02:41:07.540Z,18.63
2017-07-07T02:41:48.084Z,18.63
2017-07-07T02:42:28.625Z,18.66
2017-07-07T02:43:09.170Z,18.57
2017-07-07T02:43:49.713Z,18.62
2017-07-07T02:44:30.258Z,18.65
2017-07-07T02:45:10.807Z,18.55
2017-07-07T02:45:51.355Z,18.5
2017-07-07T02:46:31.904Z,18.62
2017-07-07T02:47:12.447Z,18.52
2017-07-07T02:47:52.989Z,18.52
2017-07-07T02:48:33.533Z,18.55
2017-07-07T02:49:14.083Z,18.54
2017-07-07T02:49:54.634Z,18.51
2017-07-07T02:50:35.178Z,18.52
2017-07-07T02:51:15.720Z,18.52
2017-07-07T02:51:56.262Z,18.52
2017-07-07T02:52:36.801Z,18.54
2017-07-07T02:53:17.340Z,18.47
2017-07-07T02:53:57.887Z,18.48
2017-07-07T02:54:38.427Z,18.48
2017-07-07T02:55:18.970Z,18.51
2017-07-07T02:55:59.510Z,18.47
2017-07-07T02:56:40.050Z,18.47
2017-07-07T02:57:20.594Z,18.5
2017-07-07T02:58:01.136Z,18.47
2017-07-07T02:58:41.679Z,18.51
2017-07-07T02:59:22.227Z,18.5
2017-07-07T03:00:02.801Z,18.52
2017-07-07T03:00:43.342Z,18.5
2017-07-07T03:01:23.884Z,18.45
2017-07-07T03:02:04.428Z,18.54
2017-07-07T03:02:44.975Z,18.54
2017-07-07T03:03:25.517Z,18.47
2017-07-07T03:04:06.061Z,18.55
2017-07-07T03:04:46.604Z,18.55
2017-07-07T03:05:27.147Z,18.55
2017-07-07T03:06:07.690Z,18.5
2017-07-07T03:06:48.220Z,18.51
2017-07-07T03:07:28.764Z,18.48
2017-07-07T03:08:09.311Z,18.51
2017-07-07T03:08:49.857Z,18.55
2017-07-07T03:09:30.402Z,18.47
2017-07-07T03:10:10.943Z,18.51
2017-07-07T03:10:51.493Z,18.55
2017-07-07T03:11:32.029Z,18.47
2017-07-07T03:12:12.573Z,18.52
2017-07-07T03:12:53.106Z,18.55
2017-07-07T03:13:33.656Z,18.5
2017-07-07T03:14:14.198Z,18.47
2017-07-07T03:14:54.740Z,18.54
2017-07-07T03:15:35.287Z,18.55
2017-07-07T03:16:15.837Z,18.55
2017-07-07T03:16:56.378Z,18.5
2017-07-07T03:17:36.920Z,18.51
2017-07-07T03:18:17.452Z,18.51
2017-07-07T03:18:57.996Z,18.51
2017-07-07T03:19:38.533Z,18.48
2017-07-07T03:20:19.075Z,18.51
2017-07-07T03:20:59.614Z,18.55
2017-07-07T03:21:40.162Z,18.52
2017-07-07T03:22:20.700Z,18.51
2017-07-07T03:23:01.247Z,18.5
2017-07-07T03:23:41.788Z,18.47
2017-07-07T03:24:22.340Z,18.58
2017-07-07T03:25:02.878Z,18.55
2017-07-07T03:25:43.423Z,18.54
2017-07-07T03:26:23.961Z,18.57
2017-07-07T03:27:04.504Z,18.63
2017-07-07T03:27:45.061Z,18.52
2017-07-07T03:28:25.608Z,18.52
2017-07-07T03:29:06.149Z,18.65
2017-07-07T03:29:46.692Z,18.62
2017-07-07T03:30:27.226Z,18.55
2017-07-07T03:31:07.776Z,18.63
2017-07-07T03:31:48.323Z,18.62
2017-07-07T03:32:28.854Z,18.6
2017-07-07T03:33:09.398Z,18.62
2017-07-07T03:33:49.943Z,18.58
2017-07-07T03:34:30.487Z,18.65
2017-07-07T03:35:11.034Z,18.62
2017-07-07T03:35:51.589Z,18.62
2017-07-07T03:36:32.129Z,18.66
2017-07-07T03:37:12.670Z,18.62
2017-07-07T03:37:53.213Z,18.6
2017-07-07T03:38:33.739Z,18.6
2017-07-07T03:39:14.285Z,18.62
2017-07-07T03:39:54.834Z,18.62
2017-07-07T03:40:35.370Z,18.63
2017-07-07T03:41:15.916Z,18.63
2017-07-07T03:41:56.458Z,18.55
2017-07-07T03:42:37.002Z,18.5
2017-07-07T03:43:17.547Z,18.52
2017-07-07T03:43:58.088Z,18.57
2017-07-07T03:44:38.627Z,18.54
2017-07-07T03:45:19.164Z,18.48
2017-07-07T03:45:59.691Z,18.55
2017-07-07T03:46:40.239Z,18.54
2017-07-07T03:47:20.778Z,18.45
2017-07-07T03:48:01.312Z,18.51
2017-07-07T03:48:41.856Z,18.5
2017-07-07T03:49:22.451Z,18.47
2017-07-07T03:50:02.946Z,18.5
2017-07-07T03:50:43.486Z,18.5
2017-07-07T03:51:24.027Z,18.5
2017-07-07T03:52:04.577Z,18.52
2017-07-07T03:52:45.119Z,18.5
2017-07-07T03:53:25.663Z,18.48
2017-07-07T03:54:06.207Z,18.51
2017-07-07T03:54:46.751Z,18.52
2017-07-07T03:55:27.298Z,18.47
2017-07-07T03:56:07.838Z,18.5
2017-07-07T03:56:48.381Z,18.5
2017-07-07T03:57:28.930Z,18.47
2017-07-07T03:58:09.473Z,18.47
2017-07-07T03:58:50.015Z,18.5
2017-07-07T03:59:30.560Z,18.5
2017-07-07T04:00:11.165Z,18.55
2017-07-07T04:00:51.712Z,18.54
2017-07-07T04:01:32.259Z,18.54
2017-07-07T04:02:12.796Z,18.57
2017-07-07T04:02:53.348Z,18.52
2017-07-07T04:03:33.886Z,18.54
2017-07-07T04:04:14.431Z,18.51
2017-07-07T04:04:54.967Z,18.52
2017-07-07T04:05:35.486Z,18.52
2017-07-07T04:06:16.030Z,18.63
2017-07-07T04:06:56.567Z,18.65
2017-07-07T04:07:37.125Z,18.58
2017-07-07T04:08:17.727Z,18.65
2017-07-07T04:08:58.215Z,18.6
2017-07-07T04:09:38.758Z,18.57
2017-07-07T04:10:19.287Z,18.55
2017-07-07T04:10:59.828Z,18.6
2017-07-07T04:11:40.371Z,18.63
2017-07-07T04:12:20.911Z,18.63
2017-07-07T04:13:01.441Z,18.67
2017-07-07T04:13:41.982Z,18.57
2017-07-07T04:14:22.545Z,18.65
2017-07-07T04:15:03.084Z,18.58
2017-07-07T04:15:43.640Z,18.65
2017-07-07T04:16:24.184Z,18.65
2017-07-07T04:17:04.716Z,18.65
2017-07-07T04:17:45.260Z,18.69
2017-07-07T04:18:25.801Z,18.66
2017-07-07T04:19:06.343Z,18.76
2017-07-07T04:19:46.869Z,18.69
2017-07-07T04:20:27.394Z,18.66
2017-07-07T04:21:07.935Z,18.65
2017-07-07T04:21:48.484Z,18.66
2017-07-07T04:22:29.002Z,18.65
2017-07-07T04:23:09.522Z,18.69
2017-07-07T04:23:50.087Z,18.7
2017-07-07T04:24:30.603Z,18.66
2017-07-07T04:25:11.147Z,18.65
2017-07-07T04:25:51.681Z,18.62
2017-07-07T04:26:32.224Z,18.7
2017-07-07T04:27:12.758Z,18.73
2017-07-07T04:27:53.292Z,18.67
2017-07-07T04:28:33.861Z,18.72
2017-07-07T04:29:14.395Z,18.7
2017-07-07T04:29:54.909Z,18.65
2017-07-07T04:30:35.456Z,18.81
2017-07-07T04:31:15.975Z,18.7
2017-07-07T04:31:56.491Z,18.75
2017-07-07T04:32:37.011Z,18.81
2017-07-07T04:33:17.559Z,18.75
2017-07-07T04:33:58.093Z,18.78
2017-07-07T04:34:38.628Z,18.78
2017-07-07T04:35:19.188Z,18.8
2017-07-07T04:35:59.745Z,18.78
2017-07-07T04:36:40.263Z,18.8
2017-07-07T04:37:20.804Z,18.82
2017-07-07T04:38:01.360Z,18.73
2017-07-07T04:38:41.894Z,18.8
2017-07-07T04:39:22.413Z,18.8
2017-07-07T04:40:02.958Z,18.81
2017-07-07T04:40:43.494Z,18.81
2017-07-07T04:41:24.044Z,18.78
2017-07-07T04:42:04.580Z,18.8
2017-07-07T04:42:45.123Z,18.81
2017-07-07T04:43:25.645Z,18.78
2017-07-07T04:44:06.161Z,18.88
2017-07-07T04:44:46.658Z,18.88
2017-07-07T04:45:27.212Z,18.88
2017-07-07T04:46:07.778Z,18.82
2017-07-07T04:46:48.304Z,18.87
2017-07-07T04:47:28.837Z,18.87
2017-07-07T04:48:09.358Z,18.94
2017-07-07T04:48:49.921Z,18.94
2017-07-07T04:49:30.430Z,18.9
2017-07-07T04:50:10.965Z,18.94
2017-07-07T04:50:51.511Z,19.02
2017-07-07T04:51:32.047Z,18.91
2017-07-07T04:52:12.587Z,18.99
2017-07-07T04:52:53.133Z,19.04
2017-07-07T04:53:33.673Z,18.9
2017-07-07T04:54:14.217Z,19.04
2017-07-07T04:54:54.747Z,18.95
2017-07-07T04:55:35.290Z,19.08
2017-07-07T04:56:15.824Z,19
2017-07-07T04:56:56.369Z,19.1
2017-07-07T04:57:36.905Z,19.11
2017-07-07T04:58:17.426Z,19.21
2017-07-07T04:58:57.966Z,19.13
2017-07-07T04:59:38.509Z,19.13
2017-07-07T05:00:19.061Z,19.18
2017-07-07T05:00:59.668Z,19.28
2017-07-07T05:01:40.147Z,19.29
2017-07-07T05:02:20.694Z,19.33
2017-07-07T05:03:01.233Z,19.25
2017-07-07T05:03:41.775Z,19.28
2017-07-07T05:04:22.314Z,19.36
2017-07-07T05:05:02.846Z,19.43
2017-07-07T05:05:43.384Z,19.5
2017-07-07T05:06:23.931Z,19.5
2017-07-07T05:07:04.468Z,19.51
2017-07-07T05:07:45.023Z,19.61
2017-07-07T05:08:25.556Z,19.62
2017-07-07T05:09:06.124Z,19.68
2017-07-07T05:09:46.669Z,19.71
2017-07-07T05:10:27.198Z,19.73
2017-07-07T05:11:07.739Z,19.69
2017-07-07T05:11:48.283Z,19.68
2017-07-07T05:12:28.832Z,19.71
2017-07-07T05:13:09.377Z,19.73
2017-07-07T05:13:49.936Z,19.76
2017-07-07T05:14:30.473Z,19.76
2017-07-07T05:15:11.011Z,19.77
2017-07-07T05:15:51.548Z,19.77
2017-07-07T05:16:32.096Z,19.78
2017-07-07T05:17:12.639Z,19.76
2017-07-07T05:17:53.183Z,19.8
2017-07-07T05:18:33.698Z,19.81
2017-07-07T05:19:14.284Z,19.81
2017-07-07T05:19:54.881Z,19.8
2017-07-07T05:20:35.404Z,19.81
2017-07-07T05:21:15.942Z,19.81
2017-07-07T05:21:56.502Z,19.8
2017-07-07T05:22:37.066Z,19.8
2017-07-07T05:23:17.588Z,19.86
2017-07-07T05:23:58.124Z,19.77
2017-07-07T05:24:38.672Z,19.78
2017-07-07T05:25:19.214Z,19.78
2017-07-07T05:25:59.758Z,19.91
2017-07-07T05:26:40.290Z,19.84
2017-07-07T05:27:20.852Z,19.86
2017-07-07T05:28:01.368Z,19.92
2017-07-07T05:28:41.908Z,20.02
2017-07-07T05:29:22.448Z,19.98
2017-07-07T05:30:02.990Z,19.99
2017-07-07T05:30:43.540Z,20.05
2017-07-07T05:31:24.082Z,19.99
2017-07-07T05:32:04.627Z,20.1
2017-07-07T05:32:45.162Z,20.17
2017-07-07T05:33:25.707Z,20.13
2017-07-07T05:34:06.241Z,20.1
2017-07-07T05:34:46.809Z,20.16
2017-07-07T05:35:27.343Z,20.2
2017-07-07T05:36:07.869Z,20.23
2017-07-07T05:36:48.409Z,20.26
2017-07-07T05:37:28.955Z,20.29
2017-07-07T05:38:09.459Z,20.29
2017-07-07T05:38:49.977Z,20.28
2017-07-07T05:39:30.514Z,20.32
2017-07-07T05:40:11.040Z,20.31
2017-07-07T05:40:51.581Z,20.31
2017-07-07T05:41:32.118Z,20.33
2017-07-07T05:42:12.660Z,20.29
2017-07-07T05:42:53.196Z,20.41
2017-07-07T05:43:33.767Z,20.38
2017-07-07T05:44:14.292Z,20.39
2017-07-07T05:44:54.834Z,20.5
2017-07-07T05:45:35.359Z,20.51
2017-07-07T05:46:15.881Z,20.58
2017-07-07T05:46:56.400Z,20.57
2017-07-07T05:47:36.932Z,20.55
2017-07-07T05:48:17.488Z,20.52
2017-07-07T05:48:58.010Z,20.59
2017-07-07T05:49:38.557Z,20.55
2017-07-07T05:50:19.094Z,20.64
2017-07-07T05:50:59.642Z,20.67
2017-07-07T05:51:40.180Z,20.67
2017-07-07T05:52:20.722Z,20.74
2017-07-07T05:53:01.267Z,20.72
2017-07-07T05:53:41.814Z,20.84
2017-07-07T05:54:22.333Z,20.77
2017-07-07T05:55:02.933Z,20.84
2017-07-07T05:55:43.787Z,20.84
2017-07-07T05:56:24.377Z,20.84
2017-07-07T05:57:04.910Z,20.94
2017-07-07T05:57:45.458Z,20.88
2017-07-07T05:58:25.994Z,20.84
2017-07-07T05:59:06.534Z,20.8
2017-07-07T05:59:47.083Z,20.85
2017-07-07T06:00:27.625Z,20.87
2017-07-07T06:01:08.166Z,20.94
2017-07-07T06:01:48.685Z,20.82
2017-07-07T06:02:29.220Z,20.84
2017-07-07T06:03:09.751Z,20.84
2017-07-07T06:03:50.295Z,20.84
2017-07-07T06:04:30.837Z,20.85
2017-07-07T06:05:11.356Z,20.88
2017-07-07T06:05:51.909Z,20.91
2017-07-07T06:06:32.418Z,20.82
2017-07-07T06:07:12.955Z,20.85
2017-07-07T06:07:53.463Z,20.88
2017-07-07T06:08:34.008Z,20.89
2017-07-07T06:09:14.522Z,20.88
2017-07-07T06:09:55.056Z,20.91
2017-07-07T06:10:35.598Z,20.88
2017-07-07T06:11:16.134Z,20.88
2017-07-07T06:11:56.659Z,20.88
2017-07-07T06:12:37.193Z,20.98
2017-07-07T06:13:17.707Z,20.98
2017-07-07T06:13:58.241Z,20.98
2017-07-07T06:14:38.782Z,21.03
2017-07-07T06:15:19.325Z,20.99
2017-07-07T06:15:59.861Z,21.04
2017-07-07T06:16:40.408Z,21.19
2017-07-07T06:17:20.923Z,21.16
2017-07-07T06:18:01.468Z,21.25
2017-07-07T06:18:42.018Z,21.21
2017-07-07T06:19:22.559Z,21.19
2017-07-07T06:20:03.103Z,21.24
2017-07-07T06:20:43.598Z,21.31
2017-07-07T06:21:24.108Z,21.37
2017-07-07T06:22:04.614Z,21.35
2017-07-07T06:22:45.177Z,21.34
2017-07-07T06:23:25.692Z,21.37
2017-07-07T06:24:06.236Z,21.34
2017-07-07T06:24:46.784Z,21.5
2017-07-07T06:25:27.329Z,21.44
2017-07-07T06:26:07.896Z,21.5
2017-07-07T06:26:48.446Z,21.5
2017-07-07T06:27:28.987Z,21.47
2017-07-07T06:28:09.527Z,21.53
2017-07-07T06:28:50.073Z,21.54
2017-07-07T06:29:30.614Z,21.54
2017-07-07T06:30:11.162Z,21.58
2017-07-07T06:30:51.710Z,21.54
2017-07-07T06:31:32.250Z,21.59
2017-07-07T06:32:12.795Z,21.54
2017-07-07T06:32:53.326Z,21.58
2017-07-07T06:33:33.864Z,21.61
2017-07-07T06:34:14.409Z,21.65
2017-07-07T06:34:54.955Z,21.65
2017-07-07T06:35:35.504Z,21.59
2017-07-07T06:36:16.046Z,21.56
2017-07-07T06:36:56.590Z,21.69
2017-07-07T06:37:37.136Z,21.65
2017-07-07T06:38:17.680Z,21.74
2017-07-07T06:38:58.228Z,21.68
2017-07-07T06:39:38.772Z,21.82
2017-07-07T06:40:19.319Z,21.84
2017-07-07T06:40:59.875Z,21.91
2017-07-07T06:41:40.423Z,21.88
2017-07-07T06:42:20.972Z,22.02
2017-07-07T06:43:01.517Z,22.07
2017-07-07T06:43:42.072Z,22.17
2017-07-07T06:44:22.622Z,22.15
2017-07-07T06:45:03.167Z,22.1
2017-07-07T06:45:43.714Z,22.22
2017-07-07T06:46:24.254Z,22.27
2017-07-07T06:47:04.793Z,22.25
2017-07-07T06:47:45.340Z,22.21
2017-07-07T06:48:25.885Z,22.25
2017-07-07T06:49:06.427Z,22.31
2017-07-07T06:49:46.977Z,22.31
2017-07-07T06:50:27.512Z,22.35
2017-07-07T06:51:08.063Z,22.36
2017-07-07T06:51:48.611Z,22.46
2017-07-07T06:52:29.165Z,22.54
2017-07-07T06:53:09.711Z,22.47
2017-07-07T06:53:50.262Z,22.58
2017-07-07T06:54:30.801Z,22.55
2017-07-07T06:55:11.349Z,22.68
2017-07-07T06:55:51.894Z,22.7
2017-07-07T06:56:32.442Z,22.77
2017-07-07T06:57:13.053Z,22.72
2017-07-07T06:57:53.600Z,22.85
2017-07-07T06:58:34.138Z,22.88
2017-07-07T06:59:14.686Z,22.92
2017-07-07T06:59:55.228Z,22.82
2017-07-07T07:00:35.773Z,22.9
2017-07-07T07:01:16.325Z,22.86
2017-07-07T07:01:56.875Z,22.83
2017-07-07T07:02:37.424Z,22.92
2017-07-07T07:03:17.973Z,22.91
2017-07-07T07:03:58.521Z,22.94
2017-07-07T07:04:39.070Z,22.94
2017-07-07T07:05:19.618Z,22.92
2017-07-07T07:06:00.166Z,22.9
2017-07-07T07:06:40.714Z,22.9
2017-07-07T07:07:21.261Z,23.01
2017-07-07T07:08:01.812Z,23
2017-07-07T07:08:42.354Z,23.04
2017-07-07T07:09:22.895Z,23.04
2017-07-07T07:10:03.443Z,23.07
2017-07-07T07:10:43.988Z,23.02
2017-07-07T07:11:24.537Z,23.04
2017-07-07T07:12:05.086Z,23.16
2017-07-07T07:12:45.626Z,23.15
2017-07-07T07:13:26.175Z,23.17
2017-07-07T07:14:06.727Z,23.25
2017-07-07T07:14:47.275Z,23.23
2017-07-07T07:15:27.820Z,23.16
2017-07-07T07:16:08.367Z,23.28
2017-07-07T07:16:48.913Z,23.33
2017-07-07T07:17:29.459Z,23.27
2017-07-07T07:18:10.015Z,23.32
2017-07-07T07:18:50.566Z,23.33
2017-07-07T07:19:31.127Z,23.36
2017-07-07T07:20:11.707Z,23.35
2017-07-07T07:20:52.252Z,23.38
2017-07-07T07:21:32.800Z,23.31
2017-07-07T07:22:13.343Z,23.38
2017-07-07T07:22:53.887Z,23.42
2017-07-07T07:23:34.436Z,23.36
2017-07-07T07:24:14.980Z,23.42
2017-07-07T07:24:55.526Z,23.43
2017-07-07T07:25:36.071Z,23.47
2017-07-07T07:26:16.619Z,23.55
2017-07-07T07:26:57.168Z,23.57
2017-07-07T07:27:37.720Z,23.6
2017-07-07T07:28:18.298Z,23.63
2017-07-07T07:28:58.847Z,23.61
2017-07-07T07:29:39.396Z,23.72
2017-07-07T07:30:19.946Z,23.69
2017-07-07T07:31:00.497Z,23.78
2017-07-07T07:31:41.042Z,23.79
2017-07-07T07:32:21.591Z,23.88
2017-07-07T07:33:02.139Z,23.88
2017-07-07T07:33:42.692Z,23.9
2017-07-07T07:34:23.232Z,23.93
2017-07-07T07:35:03.781Z,23.94
2017-07-07T07:35:44.336Z,23.98
2017-07-07T07:36:24.883Z,23.97
2017-07-07T07:37:05.437Z,24.03
2017-07-07T07:37:45.983Z,24.03
2017-07-07T07:38:26.529Z,24.12
2017-07-07T07:39:07.079Z,24.2
2017-07-07T07:39:47.623Z,24.09
2017-07-07T07:40:28.258Z,24.08
2017-07-07T07:41:08.804Z,24.12
2017-07-07T07:41:49.356Z,24.08
2017-07-07T07:42:29.904Z,24.18
2017-07-07T07:43:10.465Z,24.2
2017-07-07T07:43:51.007Z,24.12
2017-07-07T07:44:31.555Z,24.24
2017-07-07T07:45:12.103Z,24.2
2017-07-07T07:45:52.647Z,24.18
2017-07-07T07:46:33.184Z,24.27
2017-07-07T07:47:13.738Z,24.18
2017-07-07T07:47:54.288Z,24.2
2017-07-07T07:48:34.832Z,24.25
2017-07-07T07:49:15.373Z,24.25
2017-07-07T07:49:55.922Z,24.32
2017-07-07T07:50:36.468Z,24.39
2017-07-07T07:51:17.014Z,24.45
2017-07-07T07:51:57.561Z,24.58
2017-07-07T07:52:38.111Z,24.52
2017-07-07T07:53:18.656Z,24.55
2017-07-07T07:53:59.204Z,24.53
2017-07-07T07:54:39.751Z,24.6
2017-07-07T07:55:20.297Z,24.73
2017-07-07T07:56:00.848Z,24.84
2017-07-07T07:56:41.397Z,24.88
2017-07-07T07:57:21.946Z,24.9
2017-07-07T07:58:02.495Z,24.99
2017-07-07T07:58:43.064Z,25.09
2017-07-07T07:59:23.615Z,25.14
2017-07-07T08:00:04.166Z,25.18
2017-07-07T08:00:44.716Z,25.2
2017-07-07T08:01:25.266Z,25.21
2017-07-07T08:02:05.817Z,25.3
2017-07-07T08:02:46.366Z,25.18
2017-07-07T08:03:26.912Z,25.3
2017-07-07T08:04:07.469Z,25.38
2017-07-07T08:04:48.011Z,25.35
2017-07-07T08:05:28.558Z,25.5
2017-07-07T08:06:09.106Z,25.42
2017-07-07T08:06:49.651Z,25.5
2017-07-07T08:07:30.202Z,25.57
2017-07-07T08:08:10.755Z,25.75
2017-07-07T08:08:51.304Z,25.94
2017-07-07T08:09:31.854Z,25.97
2017-07-07T08:10:12.404Z,25.98
2017-07-07T08:10:52.959Z,26.06
2017-07-07T08:11:33.508Z,26.06
2017-07-07T08:12:14.059Z,26.12
2017-07-07T08:12:54.611Z,26.2
2017-07-07T08:13:35.161Z,26.2
2017-07-07T08:14:15.711Z,26.28
2017-07-07T08:14:56.262Z,26.25
2017-07-07T08:15:36.813Z,26.3
2017-07-07T08:16:17.364Z,26.3
2017-07-07T08:16:57.917Z,26.37
2017-07-07T08:17:38.465Z,26.45
2017-07-07T08:18:19.017Z,26.52
2017-07-07T08:18:59.568Z,26.5
2017-07-07T08:19:40.117Z,26.48
2017-07-07T08:20:20.669Z,26.67
2017-07-07T08:21:01.221Z,26.75
2017-07-07T08:21:41.774Z,26.75
2017-07-07T08:22:22.357Z,26.84
2017-07-07T08:23:02.905Z,27.02
2017-07-07T08:23:43.456Z,27.21
2017-07-07T08:24:24.004Z,27.19
2017-07-07T08:25:04.557Z,27.22
2017-07-07T08:25:45.102Z,27.41
2017-07-07T08:26:25.652Z,27.44
2017-07-07T08:27:06.204Z,27.47
2017-07-07T08:27:46.755Z,27.46
2017-07-07T08:28:27.312Z,27.39
2017-07-07T08:29:07.859Z,27.51
2017-07-07T08:29:48.416Z,27.7
2017-07-07T08:30:28.959Z,27.87
2017-07-07T08:31:09.518Z,28.07
2017-07-07T08:31:50.065Z,28.25
2017-07-07T08:32:30.619Z,28.31
2017-07-07T08:33:11.167Z,28.59
2017-07-07T08:33:51.717Z,28.7
2017-07-07T08:34:32.272Z,28.8
2017-07-07T08:35:12.847Z,29.15
2017-07-07T08:35:53.412Z,29.26
2017-07-07T08:36:33.962Z,29.28
2017-07-07T08:37:14.546Z,29.3
2017-07-07T08:37:55.119Z,29.21
2017-07-07T08:38:35.676Z,29.19
2017-07-07T08:39:16.223Z,29.31
2017-07-07T08:39:56.776Z,29.45
2017-07-07T08:40:37.343Z,29.71
2017-07-07T08:41:17.908Z,30.01
2017-07-07T08:41:58.455Z,30.23
2017-07-07T08:42:39.007Z,30.38
2017-07-07T08:43:19.562Z,30.43
2017-07-07T08:44:00.124Z,30.6
2017-07-07T08:44:40.706Z,30.75